Airfield :
LOGIN :

Register | Disclaimer

   EN    FR    IT 

 










Legend :    VFR   Marginal VFR   IFR   Intensive IFR   Very Intensive IFR
Visi :
Ceiling :
>= 8 km
>= 3000ft
5 to 8 km
1000 to 3000 ft
1500m to 5 km
500 to 1000 ft
800 to 1500m
200 to 500 ft
< 800m
< 200 ft
Symbols :   Thunderstorms  Fog  Heavy snow  Heavy precipitations  Wind > 20 kt
SIGMETs :     Misc.  Thunderstorms  Icing  Turbulence  Mountain Waves  Volcanic Ashes






- Airport Elevation : 308 ft


ESCF - Malmen AB

CURRENT METAR :
  • 280620Z 22004KT 9999 OVC022 00/M01 Q1016

EXPIRED METARs :
  • 280550Z 21006KT 9999 FEW010 OVC020 00/M01 Q1016
  • 280520Z AUTO 22008KT 8000 -SG FEW008/// BKN010/// OVC014/// 00/M01 Q1016
  • 280450Z AUTO 21008KT 9999 OVC017/// 01/M01 Q1016
  • 280420Z AUTO 21009KT 9999 OVC017/// 01/M01 Q1016
  • 280350Z AUTO 22008KT 9999 OVC015/// 01/M01 Q1016
  • 280320Z AUTO 22009KT 9999 BKN016/// OVC021/// 01/M01 Q1016
  • 280250Z AUTO 22008KT 9999 OVC022/// 02/M00 Q1016
  • 280220Z AUTO 21005KT 9999 OVC023/// 01/M00 Q1016
  • 280150Z AUTO 18004KT 9999 OVC025/// 01/M00 Q1016

TAF TAF ESCF
Valid from the 28 at 06:00 until the 28 at 15:00 UTC


280550Z 2806/2815 20008G14KT 9999 BKN018
TEMPO 2806/2815 BKN010 RMK MIL



MET'MAP, your aeronautical weather chart ! - Copyright ORBIFLY December 2007 - Disclaimer

ORBIFLY MET'MAP TEAM :

Programming & Development : Alexandra Zaïnal
Original concept : Baudouin d'Aumeries
Technical & hardware support : Manuel Goepfert
Assistance : Marc-Olivier Méhu




SOURCES & CREDITS :

   NOAA